sensor_id;sensor_type;location;lat;lon;timestamp;P1;durP1;ratioP1;P2;durP2;ratioP2
15425;SDS011;7812;50.072;7.036;2023-07-24T00:01:17;5.57;;;4.27;;
15425;SDS011;7812;50.072;7.036;2023-07-24T00:03:43;7.07;;;4.20;;
15425;SDS011;7812;50.072;7.036;2023-07-24T00:06:09;4.53;;;3.97;;
15425;SDS011;7812;50.072;7.036;2023-07-24T00:08:35;5.47;;;4.03;;
15425;SDS011;7812;50.072;7.036;2023-07-24T00:11:01;4.77;;;3.93;;
15425;SDS011;7812;50.072;7.036;2023-07-24T00:13:29;7.20;;;4.40;;
15425;SDS011;7812;50.072;7.036;2023-07-24T00:15:55;4.20;;;3.90;;
15425;SDS011;7812;50.072;7.036;2023-07-24T00:18:21;3.80;;;3.50;;
15425;SDS011;7812;50.072;7.036;2023-07-24T00:20:47;3.53;;;3.23;;
15425;SDS011;7812;50.072;7.036;2023-07-24T00:23:13;5.13;;;3.53;;
15425;SDS011;7812;50.072;7.036;2023-07-24T00:25:38;4.03;;;3.57;;
15425;SDS011;7812;50.072;7.036;2023-07-24T00:28:04;5.80;;;3.40;;
15425;SDS011;7812;50.072;7.036;2023-07-24T00:30:30;5.00;;;3.90;;
15425;SDS011;7812;50.072;7.036;2023-07-24T00:32:55;3.47;;;3.17;;
15425;SDS011;7812;50.072;7.036;2023-07-24T00:35:21;3.83;;;3.53;;
15425;SDS011;7812;50.072;7.036;2023-07-24T00:37:47;4.30;;;3.60;;
15425;SDS011;7812;50.072;7.036;2023-07-24T00:40:12;3.23;;;3.03;;
15425;SDS011;7812;50.072;7.036;2023-07-24T00:42:38;3.47;;;3.17;;
15425;SDS011;7812;50.072;7.036;2023-07-24T00:45:03;3.67;;;3.37;;
15425;SDS011;7812;50.072;7.036;2023-07-24T00:47:30;3.73;;;3.33;;
15425;SDS011;7812;50.072;7.036;2023-07-24T00:49:55;3.40;;;3.00;;
15425;SDS011;7812;50.072;7.036;2023-07-24T00:52:21;2.90;;;2.70;;
15425;SDS011;7812;50.072;7.036;2023-07-24T00:54:47;3.40;;;3.10;;
15425;SDS011;7812;50.072;7.036;2023-07-24T00:57:13;3.40;;;3.10;;
15425;SDS011;7812;50.072;7.036;2023-07-24T00:59:39;4.10;;;3.63;;
15425;SDS011;7812;50.072;7.036;2023-07-24T01:02:07;4.03;;;3.63;;
15425;SDS011;7812;50.072;7.036;2023-07-24T01:04:33;3.30;;;3.00;;
15425;SDS011;7812;50.072;7.036;2023-07-24T01:06:59;7.90;;;3.97;;
15425;SDS011;7812;50.072;7.036;2023-07-24T01:09:25;3.90;;;3.50;;
15425;SDS011;7812;50.072;7.036;2023-07-24T01:11:52;3.83;;;3.53;;
15425;SDS011;7812;50.072;7.036;2023-07-24T01:14:24;3.50;;;3.20;;
15425;SDS011;7812;50.072;7.036;2023-07-24T01:16:59;4.13;;;3.27;;
15425;SDS011;7812;50.072;7.036;2023-07-24T01:19:33;3.40;;;3.10;;
15425;SDS011;7812;50.072;7.036;2023-07-24T01:22:20;3.53;;;3.23;;
15425;SDS011;7812;50.072;7.036;2023-07-24T01:27:31;3.20;;;2.90;;
15425;SDS011;7812;50.072;7.036;2023-07-24T01:29:57;3.47;;;3.17;;
15425;SDS011;7812;50.072;7.036;2023-07-24T01:32:23;3.70;;;3.40;;
15425;SDS011;7812;50.072;7.036;2023-07-24T01:34:49;3.20;;;2.90;;
15425;SDS011;7812;50.072;7.036;2023-07-24T01:37:15;2.93;;;2.73;;
15425;SDS011;7812;50.072;7.036;2023-07-24T01:39:41;3.37;;;3.07;;
15425;SDS011;7812;50.072;7.036;2023-07-24T01:42:09;2.70;;;2.50;;
15425;SDS011;7812;50.072;7.036;2023-07-24T01:44:35;2.60;;;2.40;;
15425;SDS011;7812;50.072;7.036;2023-07-24T01:47:00;2.80;;;2.60;;
15425;SDS011;7812;50.072;7.036;2023-07-24T01:49:26;2.70;;;2.50;;
15425;SDS011;7812;50.072;7.036;2023-07-24T01:51:52;2.97;;;2.50;;
15425;SDS011;7812;50.072;7.036;2023-07-24T01:54:17;3.33;;;3.03;;
15425;SDS011;7812;50.072;7.036;2023-07-24T01:56:43;2.87;;;2.67;;
15425;SDS011;7812;50.072;7.036;2023-07-24T01:59:09;2.60;;;2.40;;
15425;SDS011;7812;50.072;7.036;2023-07-24T02:01:34;2.70;;;2.50;;
15425;SDS011;7812;50.072;7.036;2023-07-24T02:04:00;2.70;;;2.50;;
15425;SDS011;7812;50.072;7.036;2023-07-24T02:06:26;2.97;;;2.77;;
15425;SDS011;7812;50.072;7.036;2023-07-24T02:08:52;3.13;;;2.93;;
15425;SDS011;7812;50.072;7.036;2023-07-24T02:11:18;2.77;;;2.57;;
15425;SDS011;7812;50.072;7.036;2023-07-24T02:13:44;2.67;;;2.47;;
15425;SDS011;7812;50.072;7.036;2023-07-24T02:16:11;2.13;;;1.93;;
15425;SDS011;7812;50.072;7.036;2023-07-24T02:18:41;3.07;;;2.10;;
15425;SDS011;7812;50.072;7.036;2023-07-24T02:21:07;2.87;;;2.67;;
15425;SDS011;7812;50.072;7.036;2023-07-24T02:23:33;2.87;;;2.67;;
15425;SDS011;7812;50.072;7.036;2023-07-24T02:25:59;2.60;;;2.40;;
15425;SDS011;7812;50.072;7.036;2023-07-24T02:28:25;2.10;;;2.00;;
15425;SDS011;7812;50.072;7.036;2023-07-24T02:30:51;2.57;;;2.10;;
15425;SDS011;7812;50.072;7.036;2023-07-24T02:33:20;2.50;;;2.30;;
15425;SDS011;7812;50.072;7.036;2023-07-24T02:35:46;3.33;;;2.60;;
15425;SDS011;7812;50.072;7.036;2023-07-24T02:38:12;2.87;;;2.50;;
15425;SDS011;7812;50.072;7.036;2023-07-24T02:40:40;4.40;;;2.90;;
15425;SDS011;7812;50.072;7.036;2023-07-24T02:43:06;4.87;;;2.80;;
15425;SDS011;7812;50.072;7.036;2023-07-24T02:45:35;5.77;;;3.27;;
15425;SDS011;7812;50.072;7.036;2023-07-24T02:48:04;3.70;;;2.87;;
15425;SDS011;7812;50.072;7.036;2023-07-24T02:50:30;3.00;;;2.70;;
15425;SDS011;7812;50.072;7.036;2023-07-24T02:52:55;2.90;;;2.70;;
15425;SDS011;7812;50.072;7.036;2023-07-24T02:55:21;3.07;;;2.80;;
15425;SDS011;7812;50.072;7.036;2023-07-24T02:57:47;2.87;;;2.67;;
15425;SDS011;7812;50.072;7.036;2023-07-24T03:00:12;2.90;;;2.60;;
15425;SDS011;7812;50.072;7.036;2023-07-24T03:02:38;3.37;;;2.67;;
15425;SDS011;7812;50.072;7.036;2023-07-24T03:05:04;73.47;;;7.63;;
15425;SDS011;7812;50.072;7.036;2023-07-24T03:07:30;3.00;;;2.70;;
15425;SDS011;7812;50.072;7.036;2023-07-24T03:09:56;2.60;;;2.40;;
15425;SDS011;7812;50.072;7.036;2023-07-24T03:12:22;6.03;;;2.80;;
15425;SDS011;7812;50.072;7.036;2023-07-24T03:14:48;10.43;;;3.43;;
15425;SDS011;7812;50.072;7.036;2023-07-24T03:17:13;15.17;;;3.70;;
15425;SDS011;7812;50.072;7.036;2023-07-24T03:19:40;13.57;;;3.87;;
15425;SDS011;7812;50.072;7.036;2023-07-24T03:22:06;64.90;;;7.90;;
15425;SDS011;7812;50.072;7.036;2023-07-24T03:24:32;25.07;;;4.50;;
15425;SDS011;7812;50.072;7.036;2023-07-24T03:26:58;48.50;;;5.43;;
15425;SDS011;7812;50.072;7.036;2023-07-24T03:29:25;36.50;;;5.67;;
15425;SDS011;7812;50.072;7.036;2023-07-24T03:31:51;43.30;;;5.77;;
15425;SDS011;7812;50.072;7.036;2023-07-24T03:34:18;29.37;;;5.10;;
15425;SDS011;7812;50.072;7.036;2023-07-24T03:36:43;18.63;;;3.37;;
15425;SDS011;7812;50.072;7.036;2023-07-24T03:39:09;33.67;;;4.50;;
15425;SDS011;7812;50.072;7.036;2023-07-24T03:41:36;35.40;;;4.43;;
15425;SDS011;7812;50.072;7.036;2023-07-24T03:44:02;43.50;;;6.00;;
15425;SDS011;7812;50.072;7.036;2023-07-24T03:46:27;9.30;;;3.70;;
15425;SDS011;7812;50.072;7.036;2023-07-24T03:48:53;35.13;;;5.00;;
15425;SDS011;7812;50.072;7.036;2023-07-24T03:51:19;10.53;;;2.47;;
15425;SDS011;7812;50.072;7.036;2023-07-24T03:53:44;1.93;;;1.77;;
15425;SDS011;7812;50.072;7.036;2023-07-24T03:56:11;32.30;;;4.37;;
15425;SDS011;7812;50.072;7.036;2023-07-24T03:58:37;8.20;;;2.40;;
15425;SDS011;7812;50.072;7.036;2023-07-24T04:01:03;6.77;;;2.40;;
15425;SDS011;7812;50.072;7.036;2023-07-24T04:03:29;6.87;;;2.83;;
15425;SDS011;7812;50.072;7.036;2023-07-24T04:05:55;19.40;;;3.47;;
15425;SDS011;7812;50.072;7.036;2023-07-24T04:08:20;18.70;;;3.07;;
15425;SDS011;7812;50.072;7.036;2023-07-24T04:10:46;9.03;;;2.83;;
15425;SDS011;7812;50.072;7.036;2023-07-24T04:13:12;4.20;;;2.53;;
15425;SDS011;7812;50.072;7.036;2023-07-24T04:15:37;45.53;;;4.90;;
15425;SDS011;7812;50.072;7.036;2023-07-24T04:18:04;7.87;;;3.00;;
15425;SDS011;7812;50.072;7.036;2023-07-24T04:20:30;10.50;;;2.80;;
15425;SDS011;7812;50.072;7.036;2023-07-24T04:22:55;9.13;;;3.13;;
15425;SDS011;7812;50.072;7.036;2023-07-24T04:25:21;4.57;;;2.60;;
15425;SDS011;7812;50.072;7.036;2023-07-24T04:27:47;6.30;;;2.83;;
15425;SDS011;7812;50.072;7.036;2023-07-24T04:30:12;3.37;;;2.50;;
15425;SDS011;7812;50.072;7.036;2023-07-24T04:32:38;4.40;;;2.47;;
15425;SDS011;7812;50.072;7.036;2023-07-24T04:35:04;3.53;;;2.53;;
15425;SDS011;7812;50.072;7.036;2023-07-24T04:37:30;2.50;;;2.30;;
15425;SDS011;7812;50.072;7.036;2023-07-24T04:39:56;2.50;;;2.30;;
15425;SDS011;7812;50.072;7.036;2023-07-24T04:42:21;3.57;;;2.60;;
15425;SDS011;7812;50.072;7.036;2023-07-24T04:44:47;7.07;;;2.80;;
15425;SDS011;7812;50.072;7.036;2023-07-24T04:47:15;2.57;;;2.37;;
15425;SDS011;7812;50.072;7.036;2023-07-24T04:49:40;2.50;;;2.30;;
15425;SDS011;7812;50.072;7.036;2023-07-24T04:52:06;2.97;;;2.60;;
15425;SDS011;7812;50.072;7.036;2023-07-24T04:54:32;2.70;;;2.50;;
15425;SDS011;7812;50.072;7.036;2023-07-24T04:56:57;2.90;;;2.60;;
15425;SDS011;7812;50.072;7.036;2023-07-24T04:59:23;5.60;;;2.83;;
15425;SDS011;7812;50.072;7.036;2023-07-24T05:01:49;2.33;;;2.13;;
15425;SDS011;7812;50.072;7.036;2023-07-24T05:04:15;6.90;;;2.70;;
15425;SDS011;7812;50.072;7.036;2023-07-24T05:06:40;3.70;;;2.30;;
15425;SDS011;7812;50.072;7.036;2023-07-24T05:09:06;3.17;;;2.60;;
15425;SDS011;7812;50.072;7.036;2023-07-24T05:11:32;2.53;;;2.33;;
15425;SDS011;7812;50.072;7.036;2023-07-24T05:13:57;2.30;;;2.10;;
15425;SDS011;7812;50.072;7.036;2023-07-24T05:16:23;8.40;;;2.70;;
15425;SDS011;7812;50.072;7.036;2023-07-24T05:18:49;4.93;;;2.30;;
15425;SDS011;7812;50.072;7.036;2023-07-24T05:21:14;2.70;;;2.23;;
15425;SDS011;7812;50.072;7.036;2023-07-24T05:23:40;2.40;;;2.20;;
15425;SDS011;7812;50.072;7.036;2023-07-24T05:26:05;1.90;;;1.80;;
15425;SDS011;7812;50.072;7.036;2023-07-24T05:28:31;4.60;;;2.60;;
15425;SDS011;7812;50.072;7.036;2023-07-24T05:31:04;2.33;;;2.13;;
15425;SDS011;7812;50.072;7.036;2023-07-24T05:33:31;2.73;;;2.53;;
15425;SDS011;7812;50.072;7.036;2023-07-24T05:36:00;2.40;;;2.23;;
15425;SDS011;7812;50.072;7.036;2023-07-24T05:38:28;2.50;;;2.30;;
15425;SDS011;7812;50.072;7.036;2023-07-24T05:41:03;2.40;;;2.20;;
15425;SDS011;7812;50.072;7.036;2023-07-24T05:43:29;3.00;;;2.33;;
15425;SDS011;7812;50.072;7.036;2023-07-24T05:45:56;2.60;;;2.40;;
15425;SDS011;7812;50.072;7.036;2023-07-24T05:48:23;2.20;;;2.00;;
15425;SDS011;7812;50.072;7.036;2023-07-24T05:50:49;2.80;;;2.60;;
15425;SDS011;7812;50.072;7.036;2023-07-24T05:53:15;7.73;;;3.30;;
15425;SDS011;7812;50.072;7.036;2023-07-24T05:55:41;2.83;;;2.63;;
15425;SDS011;7812;50.072;7.036;2023-07-24T05:58:07;2.90;;;2.60;;
15425;SDS011;7812;50.072;7.036;2023-07-24T06:00:33;2.80;;;2.60;;
15425;SDS011;7812;50.072;7.036;2023-07-24T06:02:59;2.50;;;2.30;;
15425;SDS011;7812;50.072;7.036;2023-07-24T06:05:25;3.00;;;2.80;;
15425;SDS011;7812;50.072;7.036;2023-07-24T06:07:50;2.50;;;2.30;;
15425;SDS011;7812;50.072;7.036;2023-07-24T06:10:16;2.63;;;2.43;;
15425;SDS011;7812;50.072;7.036;2023-07-24T06:12:41;3.03;;;2.83;;
15425;SDS011;7812;50.072;7.036;2023-07-24T06:15:07;2.80;;;2.60;;
15425;SDS011;7812;50.072;7.036;2023-07-24T06:17:33;2.90;;;2.70;;
15425;SDS011;7812;50.072;7.036;2023-07-24T06:19:59;2.53;;;2.33;;
15425;SDS011;7812;50.072;7.036;2023-07-24T06:22:24;2.10;;;1.90;;
15425;SDS011;7812;50.072;7.036;2023-07-24T06:24:50;2.30;;;2.10;;
15425;SDS011;7812;50.072;7.036;2023-07-24T06:27:16;2.30;;;2.10;;
15425;SDS011;7812;50.072;7.036;2023-07-24T06:29:41;3.00;;;2.37;;
15425;SDS011;7812;50.072;7.036;2023-07-24T06:32:07;2.40;;;2.20;;
15425;SDS011;7812;50.072;7.036;2023-07-24T06:34:33;2.70;;;2.27;;
15425;SDS011;7812;50.072;7.036;2023-07-24T06:36:59;2.40;;;2.20;;
15425;SDS011;7812;50.072;7.036;2023-07-24T06:39:25;2.83;;;2.53;;
15425;SDS011;7812;50.072;7.036;2023-07-24T06:41:51;3.13;;;2.30;;
15425;SDS011;7812;50.072;7.036;2023-07-24T06:44:17;2.07;;;1.93;;
15425;SDS011;7812;50.072;7.036;2023-07-24T06:46:43;2.53;;;2.27;;
15425;SDS011;7812;50.072;7.036;2023-07-24T06:49:09;2.93;;;2.07;;
15425;SDS011;7812;50.072;7.036;2023-07-24T06:51:36;2.13;;;2.03;;
15425;SDS011;7812;50.072;7.036;2023-07-24T06:54:03;2.80;;;2.00;;
15425;SDS011;7812;50.072;7.036;2023-07-24T06:56:29;2.23;;;2.13;;
15425;SDS011;7812;50.072;7.036;2023-07-24T06:58:55;2.37;;;2.17;;
15425;SDS011;7812;50.072;7.036;2023-07-24T07:01:21;2.27;;;2.07;;
15425;SDS011;7812;50.072;7.036;2023-07-24T07:03:47;2.40;;;2.20;;
15425;SDS011;7812;50.072;7.036;2023-07-24T07:06:12;2.43;;;1.93;;
15425;SDS011;7812;50.072;7.036;2023-07-24T07:08:38;2.70;;;2.30;;
15425;SDS011;7812;50.072;7.036;2023-07-24T07:11:04;2.50;;;2.30;;
15425;SDS011;7812;50.072;7.036;2023-07-24T07:13:30;2.37;;;2.17;;
15425;SDS011;7812;50.072;7.036;2023-07-24T07:15:55;2.77;;;2.30;;
15425;SDS011;7812;50.072;7.036;2023-07-24T07:18:21;2.40;;;2.20;;
15425;SDS011;7812;50.072;7.036;2023-07-24T07:20:50;2.60;;;2.20;;
15425;SDS011;7812;50.072;7.036;2023-07-24T07:23:17;2.87;;;2.40;;
15425;SDS011;7812;50.072;7.036;2023-07-24T07:25:44;2.20;;;2.00;;
15425;SDS011;7812;50.072;7.036;2023-07-24T07:28:13;3.60;;;2.40;;
15425;SDS011;7812;50.072;7.036;2023-07-24T07:30:43;3.20;;;2.30;;
15425;SDS011;7812;50.072;7.036;2023-07-24T07:33:09;2.80;;;2.07;;
15425;SDS011;7812;50.072;7.036;2023-07-24T07:35:35;2.03;;;1.77;;
15425;SDS011;7812;50.072;7.036;2023-07-24T07:38:01;4.27;;;2.53;;
15425;SDS011;7812;50.072;7.036;2023-07-24T07:40:27;2.87;;;2.67;;
15425;SDS011;7812;50.072;7.036;2023-07-24T07:42:53;3.20;;;2.70;;
15425;SDS011;7812;50.072;7.036;2023-07-24T07:45:19;3.13;;;2.83;;
15425;SDS011;7812;50.072;7.036;2023-07-24T07:47:46;3.67;;;3.03;;
15425;SDS011;7812;50.072;7.036;2023-07-24T07:50:11;3.03;;;2.73;;
15425;SDS011;7812;50.072;7.036;2023-07-24T07:52:37;7.17;;;3.17;;
15425;SDS011;7812;50.072;7.036;2023-07-24T07:55:03;4.50;;;3.10;;
15425;SDS011;7812;50.072;7.036;2023-07-24T07:57:31;3.27;;;2.93;;
15425;SDS011;7812;50.072;7.036;2023-07-24T07:59:59;3.50;;;3.10;;
15425;SDS011;7812;50.072;7.036;2023-07-24T08:02:24;3.30;;;3.00;;
15425;SDS011;7812;50.072;7.036;2023-07-24T08:04:50;4.27;;;3.13;;
15425;SDS011;7812;50.072;7.036;2023-07-24T08:07:16;3.40;;;3.10;;
15425;SDS011;7812;50.072;7.036;2023-07-24T08:09:41;3.20;;;2.90;;
15425;SDS011;7812;50.072;7.036;2023-07-24T08:12:07;3.97;;;3.23;;
15425;SDS011;7812;50.072;7.036;2023-07-24T08:14:33;4.90;;;3.20;;
15425;SDS011;7812;50.072;7.036;2023-07-24T08:16:58;5.17;;;3.50;;
15425;SDS011;7812;50.072;7.036;2023-07-24T08:19:27;4.20;;;3.10;;
15425;SDS011;7812;50.072;7.036;2023-07-24T08:21:54;5.47;;;3.00;;
15425;SDS011;7812;50.072;7.036;2023-07-24T08:24:19;5.43;;;3.17;;
15425;SDS011;7812;50.072;7.036;2023-07-24T08:26:45;3.90;;;3.30;;
15425;SDS011;7812;50.072;7.036;2023-07-24T08:29:11;4.30;;;3.00;;
15425;SDS011;7812;50.072;7.036;2023-07-24T08:31:37;3.97;;;3.57;;
15425;SDS011;7812;50.072;7.036;2023-07-24T08:34:02;3.43;;;3.03;;
15425;SDS011;7812;50.072;7.036;2023-07-24T08:36:28;3.40;;;3.10;;
15425;SDS011;7812;50.072;7.036;2023-07-24T08:38:54;4.80;;;2.83;;
15425;SDS011;7812;50.072;7.036;2023-07-24T08:41:20;3.20;;;2.90;;
15425;SDS011;7812;50.072;7.036;2023-07-24T08:43:46;3.93;;;2.60;;
15425;SDS011;7812;50.072;7.036;2023-07-24T08:46:11;3.17;;;2.47;;
15425;SDS011;7812;50.072;7.036;2023-07-24T08:48:42;3.20;;;2.90;;
15425;SDS011;7812;50.072;7.036;2023-07-24T08:51:09;3.10;;;2.80;;
15425;SDS011;7812;50.072;7.036;2023-07-24T08:53:37;2.87;;;2.67;;
15425;SDS011;7812;50.072;7.036;2023-07-24T08:56:07;3.03;;;2.70;;
15425;SDS011;7812;50.072;7.036;2023-07-24T08:58:34;2.97;;;2.53;;
15425;SDS011;7812;50.072;7.036;2023-07-24T09:01:01;3.80;;;2.70;;
15425;SDS011;7812;50.072;7.036;2023-07-24T09:03:27;3.00;;;2.70;;
15425;SDS011;7812;50.072;7.036;2023-07-24T09:05:53;2.70;;;2.33;;
15425;SDS011;7812;50.072;7.036;2023-07-24T09:08:32;2.67;;;2.17;;
15425;SDS011;7812;50.072;7.036;2023-07-24T09:10:59;3.37;;;3.03;;
15425;SDS011;7812;50.072;7.036;2023-07-24T09:13:25;3.60;;;2.87;;
15425;SDS011;7812;50.072;7.036;2023-07-24T09:15:51;5.00;;;2.70;;
15425;SDS011;7812;50.072;7.036;2023-07-24T09:18:17;4.30;;;2.70;;
15425;SDS011;7812;50.072;7.036;2023-07-24T09:20:44;3.30;;;2.50;;
15425;SDS011;7812;50.072;7.036;2023-07-24T09:23:11;2.30;;;2.10;;
15425;SDS011;7812;50.072;7.036;2023-07-24T09:25:38;4.67;;;2.63;;
15425;SDS011;7812;50.072;7.036;2023-07-24T09:28:15;2.40;;;2.20;;
15425;SDS011;7812;50.072;7.036;2023-07-24T09:30:42;3.30;;;3.00;;
15425;SDS011;7812;50.072;7.036;2023-07-24T09:33:20;3.10;;;2.33;;
15425;SDS011;7812;50.072;7.036;2023-07-24T09:35:56;3.37;;;3.00;;
15425;SDS011;7812;50.072;7.036;2023-07-24T09:38:24;4.50;;;2.93;;
15425;SDS011;7812;50.072;7.036;2023-07-24T09:40:49;3.83;;;3.33;;
15425;SDS011;7812;50.072;7.036;2023-07-24T09:43:19;3.50;;;3.20;;
15425;SDS011;7812;50.072;7.036;2023-07-24T09:45:46;4.93;;;3.23;;
15425;SDS011;7812;50.072;7.036;2023-07-24T09:48:13;4.67;;;3.00;;
15425;SDS011;7812;50.072;7.036;2023-07-24T09:50:40;4.03;;;3.23;;
15425;SDS011;7812;50.072;7.036;2023-07-24T09:53:21;3.33;;;3.03;;
15425;SDS011;7812;50.072;7.036;2023-07-24T09:56:02;5.70;;;3.30;;
15425;SDS011;7812;50.072;7.036;2023-07-24T09:58:29;3.53;;;3.20;;
15425;SDS011;7812;50.072;7.036;2023-07-24T10:00:59;4.00;;;3.10;;
15425;SDS011;7812;50.072;7.036;2023-07-24T10:03:28;3.43;;;2.80;;
15425;SDS011;7812;50.072;7.036;2023-07-24T10:05:55;3.63;;;2.93;;
15425;SDS011;7812;50.072;7.036;2023-07-24T10:08:21;3.93;;;2.90;;
15425;SDS011;7812;50.072;7.036;2023-07-24T10:10:47;2.57;;;2.37;;
15425;SDS011;7812;50.072;7.036;2023-07-24T10:13:16;3.37;;;3.07;;
15425;SDS011;7812;50.072;7.036;2023-07-24T10:15:43;3.37;;;3.03;;
15425;SDS011;7812;50.072;7.036;2023-07-24T10:18:11;4.53;;;3.33;;
15425;SDS011;7812;50.072;7.036;2023-07-24T10:20:41;4.53;;;3.03;;
15425;SDS011;7812;50.072;7.036;2023-07-24T10:23:07;5.37;;;3.37;;
15425;SDS011;7812;50.072;7.036;2023-07-24T10:25:35;4.17;;;3.20;;
15425;SDS011;7812;50.072;7.036;2023-07-24T10:28:06;3.33;;;2.87;;
15425;SDS011;7812;50.072;7.036;2023-07-24T10:30:35;4.30;;;3.03;;
15425;SDS011;7812;50.072;7.036;2023-07-24T10:35:37;3.23;;;2.93;;
15425;SDS011;7812;50.072;7.036;2023-07-24T10:38:09;3.80;;;3.20;;
15425;SDS011;7812;50.072;7.036;2023-07-24T10:40:35;3.53;;;2.93;;
15425;SDS011;7812;50.072;7.036;2023-07-24T10:43:04;3.57;;;3.03;;
15425;SDS011;7812;50.072;7.036;2023-07-24T10:45:47;2.80;;;2.53;;
15425;SDS011;7812;50.072;7.036;2023-07-24T10:48:17;3.63;;;2.87;;
15425;SDS011;7812;50.072;7.036;2023-07-24T10:50:44;3.23;;;2.70;;
15425;SDS011;7812;50.072;7.036;2023-07-24T10:53:12;3.20;;;2.33;;
15425;SDS011;7812;50.072;7.036;2023-07-24T10:55:41;2.53;;;2.30;;
15425;SDS011;7812;50.072;7.036;2023-07-24T10:58:07;4.10;;;2.20;;
15425;SDS011;7812;50.072;7.036;2023-07-24T11:00:33;3.47;;;2.60;;
15425;SDS011;7812;50.072;7.036;2023-07-24T11:02:59;3.53;;;2.43;;
15425;SDS011;7812;50.072;7.036;2023-07-24T11:05:25;3.10;;;2.80;;
15425;SDS011;7812;50.072;7.036;2023-07-24T11:07:51;2.83;;;2.53;;
15425;SDS011;7812;50.072;7.036;2023-07-24T11:10:19;2.67;;;2.47;;
15425;SDS011;7812;50.072;7.036;2023-07-24T11:12:45;3.03;;;2.27;;
15425;SDS011;7812;50.072;7.036;2023-07-24T11:15:12;3.23;;;2.23;;
15425;SDS011;7812;50.072;7.036;2023-07-24T11:17:39;3.10;;;2.40;;
15425;SDS011;7812;50.072;7.036;2023-07-24T11:22:42;3.03;;;2.20;;
15425;SDS011;7812;50.072;7.036;2023-07-24T11:25:09;3.43;;;2.80;;
15425;SDS011;7812;50.072;7.036;2023-07-24T11:27:42;2.37;;;2.10;;
15425;SDS011;7812;50.072;7.036;2023-07-24T11:30:12;3.63;;;2.20;;
15425;SDS011;7812;50.072;7.036;2023-07-24T11:32:44;2.43;;;2.23;;
15425;SDS011;7812;50.072;7.036;2023-07-24T11:35:09;2.30;;;2.10;;
15425;SDS011;7812;50.072;7.036;2023-07-24T11:37:35;2.60;;;2.17;;
15425;SDS011;7812;50.072;7.036;2023-07-24T11:40:02;4.27;;;2.50;;
15425;SDS011;7812;50.072;7.036;2023-07-24T11:42:38;3.60;;;2.37;;
15425;SDS011;7812;50.072;7.036;2023-07-24T11:45:05;3.83;;;2.40;;
15425;SDS011;7812;50.072;7.036;2023-07-24T11:47:46;2.80;;;2.17;;
15425;SDS011;7812;50.072;7.036;2023-07-24T11:50:14;3.10;;;2.33;;
15425;SDS011;7812;50.072;7.036;2023-07-24T11:52:41;3.27;;;2.33;;
15425;SDS011;7812;50.072;7.036;2023-07-24T11:55:13;3.13;;;2.20;;
15425;SDS011;7812;50.072;7.036;2023-07-24T11:57:40;2.57;;;2.00;;
15425;SDS011;7812;50.072;7.036;2023-07-24T12:00:17;3.40;;;2.40;;
15425;SDS011;7812;50.072;7.036;2023-07-24T12:02:44;2.83;;;2.00;;
15425;SDS011;7812;50.072;7.036;2023-07-24T12:05:10;3.73;;;1.87;;
15425;SDS011;7812;50.072;7.036;2023-07-24T12:07:36;3.53;;;2.47;;
15425;SDS011;7812;50.072;7.036;2023-07-24T12:10:03;3.87;;;2.10;;
15425;SDS011;7812;50.072;7.036;2023-07-24T12:15:11;3.30;;;2.40;;
15425;SDS011;7812;50.072;7.036;2023-07-24T12:17:38;2.60;;;2.23;;
15425;SDS011;7812;50.072;7.036;2023-07-24T12:20:04;2.93;;;2.00;;
15425;SDS011;7812;50.072;7.036;2023-07-24T12:22:33;2.50;;;2.00;;
15425;SDS011;7812;50.072;7.036;2023-07-24T12:24:59;2.57;;;2.10;;
15425;SDS011;7812;50.072;7.036;2023-07-24T12:27:26;2.63;;;1.90;;
15425;SDS011;7812;50.072;7.036;2023-07-24T12:29:52;2.27;;;2.07;;
15425;SDS011;7812;50.072;7.036;2023-07-24T12:32:17;2.27;;;1.97;;
15425;SDS011;7812;50.072;7.036;2023-07-24T12:34:44;2.37;;;2.00;;
15425;SDS011;7812;50.072;7.036;2023-07-24T12:37:11;2.37;;;1.87;;
15425;SDS011;7812;50.072;7.036;2023-07-24T12:39:37;2.43;;;2.10;;
15425;SDS011;7812;50.072;7.036;2023-07-24T12:42:03;2.20;;;1.90;;
15425;SDS011;7812;50.072;7.036;2023-07-24T12:44:29;2.10;;;1.87;;
15425;SDS011;7812;50.072;7.036;2023-07-24T12:46:55;2.70;;;2.10;;
15425;SDS011;7812;50.072;7.036;2023-07-24T12:49:20;2.80;;;1.87;;
15425;SDS011;7812;50.072;7.036;2023-07-24T12:51:46;1.80;;;1.70;;
15425;SDS011;7812;50.072;7.036;2023-07-24T12:54:12;2.07;;;1.40;;
15425;SDS011;7812;50.072;7.036;2023-07-24T12:56:37;1.40;;;1.30;;
15425;SDS011;7812;50.072;7.036;2023-07-24T12:59:04;1.73;;;1.63;;
15425;SDS011;7812;50.072;7.036;2023-07-24T13:01:30;1.40;;;1.30;;
15425;SDS011;7812;50.072;7.036;2023-07-24T13:03:55;2.33;;;1.53;;
15425;SDS011;7812;50.072;7.036;2023-07-24T13:06:21;2.37;;;1.47;;
15425;SDS011;7812;50.072;7.036;2023-07-24T13:08:47;1.97;;;1.50;;
15425;SDS011;7812;50.072;7.036;2023-07-24T13:11:13;2.80;;;1.73;;
15425;SDS011;7812;50.072;7.036;2023-07-24T13:13:39;1.53;;;1.43;;
15425;SDS011;7812;50.072;7.036;2023-07-24T13:16:05;1.80;;;1.70;;
15425;SDS011;7812;50.072;7.036;2023-07-24T13:18:30;1.43;;;1.20;;
15425;SDS011;7812;50.072;7.036;2023-07-24T13:20:56;2.13;;;1.50;;
15425;SDS011;7812;50.072;7.036;2023-07-24T13:23:22;1.93;;;1.43;;
15425;SDS011;7812;50.072;7.036;2023-07-24T13:25:47;2.80;;;1.47;;
15425;SDS011;7812;50.072;7.036;2023-07-24T13:28:15;1.43;;;1.33;;
15425;SDS011;7812;50.072;7.036;2023-07-24T13:30:41;2.50;;;1.33;;
15425;SDS011;7812;50.072;7.036;2023-07-24T13:33:06;2.17;;;1.60;;
15425;SDS011;7812;50.072;7.036;2023-07-24T13:35:32;2.27;;;1.57;;
15425;SDS011;7812;50.072;7.036;2023-07-24T13:37:58;1.40;;;1.30;;
15425;SDS011;7812;50.072;7.036;2023-07-24T13:40:23;2.03;;;1.67;;
15425;SDS011;7812;50.072;7.036;2023-07-24T13:42:49;1.40;;;1.30;;
15425;SDS011;7812;50.072;7.036;2023-07-24T13:45:15;1.47;;;1.30;;
15425;SDS011;7812;50.072;7.036;2023-07-24T13:47:41;1.60;;;1.20;;
15425;SDS011;7812;50.072;7.036;2023-07-24T13:50:07;1.40;;;1.30;;
15425;SDS011;7812;50.072;7.036;2023-07-24T13:52:33;1.43;;;1.20;;
15425;SDS011;7812;50.072;7.036;2023-07-24T13:54:59;1.63;;;1.30;;
15425;SDS011;7812;50.072;7.036;2023-07-24T13:57:25;1.80;;;1.37;;
15425;SDS011;7812;50.072;7.036;2023-07-24T13:59:51;1.40;;;1.30;;
15425;SDS011;7812;50.072;7.036;2023-07-24T14:02:17;1.73;;;1.00;;
15425;SDS011;7812;50.072;7.036;2023-07-24T14:04:43;2.53;;;1.00;;
15425;SDS011;7812;50.072;7.036;2023-07-24T14:07:09;0.87;;;0.87;;
15425;SDS011;7812;50.072;7.036;2023-07-24T14:09:38;1.23;;;1.00;;
15425;SDS011;7812;50.072;7.036;2023-07-24T14:12:04;1.40;;;1.10;;
15425;SDS011;7812;50.072;7.036;2023-07-24T14:14:30;3.20;;;0.80;;
15425;SDS011;7812;50.072;7.036;2023-07-24T14:16:56;1.33;;;1.20;;
15425;SDS011;7812;50.072;7.036;2023-07-24T14:19:22;2.90;;;1.00;;
15425;SDS011;7812;50.072;7.036;2023-07-24T14:21:51;1.30;;;1.20;;
15425;SDS011;7812;50.072;7.036;2023-07-24T14:24:17;1.20;;;1.10;;
15425;SDS011;7812;50.072;7.036;2023-07-24T14:26:42;1.20;;;1.10;;
15425;SDS011;7812;50.072;7.036;2023-07-24T14:29:10;1.10;;;1.00;;
15425;SDS011;7812;50.072;7.036;2023-07-24T14:31:36;1.10;;;1.00;;
15425;SDS011;7812;50.072;7.036;2023-07-24T14:34:02;1.53;;;1.43;;
15425;SDS011;7812;50.072;7.036;2023-07-24T14:36:28;2.50;;;1.50;;
15425;SDS011;7812;50.072;7.036;2023-07-24T14:39:02;1.30;;;1.10;;
15425;SDS011;7812;50.072;7.036;2023-07-24T14:41:28;3.53;;;1.40;;
15425;SDS011;7812;50.072;7.036;2023-07-24T14:43:54;2.17;;;1.10;;
15425;SDS011;7812;50.072;7.036;2023-07-24T14:46:19;5.03;;;1.60;;
15425;SDS011;7812;50.072;7.036;2023-07-24T14:48:45;2.50;;;1.30;;
15425;SDS011;7812;50.072;7.036;2023-07-24T14:51:11;1.20;;;1.10;;
15425;SDS011;7812;50.072;7.036;2023-07-24T14:53:36;1.67;;;1.30;;
15425;SDS011;7812;50.072;7.036;2023-07-24T14:56:02;1.97;;;1.20;;
15425;SDS011;7812;50.072;7.036;2023-07-24T14:58:30;1.80;;;1.40;;
15425;SDS011;7812;50.072;7.036;2023-07-24T15:00:56;2.37;;;1.40;;
15425;SDS011;7812;50.072;7.036;2023-07-24T15:03:30;1.70;;;1.60;;
15425;SDS011;7812;50.072;7.036;2023-07-24T15:05:56;1.43;;;1.03;;
15425;SDS011;7812;50.072;7.036;2023-07-24T15:08:21;1.80;;;1.40;;